x

Central Caribbean - 210 Nm Sse Of Kingston, Jamaica (42058) Wave Buoy

4:50am - Thu 18th Dec 2014 All times are EST. -5 hours from GMT.

  • Sig Wave height 6.2ft
  • Swell Direction
  • Peak Period 8s
  • Average Period 5s
  • Wind
    22mph, 27mph gusts
  • Sea Temp 83°f
  • Air Temp 82°f
  • Sea Pressure 1012.5mb
  • Central Caribbean - 210 Nm Sse Of Kingston, Jamaica
  • Central Caribbean - 210 Nm Sse Of Kingston, Jamaica

More Historic Weather Station data

Upgrade to MSW Pro to gain access to the past 30 days of data for over 8000 Wavebouys and Weather Stations around the globe.

Join Pro

Comparision Forecast

View Surf forecast
   
Thu 12/18 4:50am 6ft 8s 5s 22 27 mph 1012.5mb 83f 82f
3:50am 5.5ft 7s 5s 22 27 mph 1012.1mb 83f 82f
2:50am 5ft 7s 5s 20 27 mph 1012.3mb 83f 82f
1:50am 5.5ft 8s 5s 20 22 mph 1012.6mb 83f 82f
12:50am 5ft 8s 5s 20 22 mph 1013.3mb 83f 82f
Wed 12/17 11:50pm 5.5ft 8s 5s 20 25 mph 1013.7mb 83f 82f
10:50pm 5.5ft 7s 5s 22 25 mph 1013.8mb 83f 82f
9:50pm 5ft 7s 5s 20 25 mph 1014mb 83f 82f
8:50pm 5.5ft 8s 5s 18 22 mph 1013.8mb 83f 83f
7:50pm 5ft 8s 5s 20 25 mph 1013.8mb 83f 82f
6:50pm 5ft 8s 5s 18 20 mph 1013.4mb 83f 82f
5:50pm 5ft 7s 5s 18 20 mph 1013mb 82f 82f
4:50pm 5ft 7s 5s 20 22 mph 1012.4mb 82f 83f
3:50pm 4.5ft 7s 5s 20 22 mph 1011.9mb 82f 82f
2:50pm 4.5ft 6s 5s 13 20 mph 1011.8mb 82f 82f
1:50pm 4.5ft 5s 5s 16 18 mph 1012.2mb 82f 82f
12:50pm 4ft 6s 5s 16 20 mph 1013.1mb 82f 82f
11:50am 4.5ft 6s 5s 11 13 mph 1014.3mb 82f 82f
10:50am 4.5ft 7s 5s 11 16 mph 1014.7mb 82f 82f
9:50am 4.5ft 5s 5s 16 18 mph 1015.1mb 82f 82f
8:50am 4.5ft 7s 5s 18 22 mph 1015.1mb 82f 80f
7:50am 3.5ft 5s 5s 18 20 mph 1014.2mb 82f 82f
6:50am 3.5ft 8s 5s 16 18 mph 1013.7mb 82f 82f
5:50am 3.5ft 5s 5s 9 11 mph 1013.4mb 82f 79f
4:50am 3.5ft 6s 5s 13 16 mph 1013.1mb 82f 82f
3:50am 3ft 7s 5s 11 13 mph 1012.8mb 82f 81f
2:50am 3ft 6s 5s 11 13 mph 1013.1mb 82f 81f
1:50am 3.5ft 6s 5s 13 16 mph 1013.5mb 82f 82f
12:50am 3.5ft 7s 5s 13 16 mph 1014.2mb 82f 82f
Tue 12/16 11:50pm 3ft 7s 5s 11 13 mph 1014.7mb 82f 82f
10:50pm 3ft 7s 5s 9 11 mph 1014.8mb 82f 82f
9:50pm 3ft 6s 5s 11 13 mph 1015.3mb 82f 82f
8:50pm 3ft 7s 5s 13 16 mph 1015.1mb 82f 82f
7:50pm 3ft 7s 5s 11 13 mph 1014.8mb 83f 82f
6:50pm 3ft 7s 5s 9 11 mph 1013.9mb 83f 81f
5:50pm 3ft 7s 5s 4 7 mph 1013.3mb 83f 82f
4:50pm 3ft 7s 5s 7 9 mph 1012.9mb 83f 82f
3:50pm 3ft 7s 5s 7 9 mph 1012.5mb 83f 82f
2:50pm 3ft 8s 5s 9
mph
1012.4mb 83f 82f
1:50pm 3ft 6s 5s 11
mph
1012.6mb 83f 82f
12:50pm 2.5ft 7s 5s 11 16 mph 1013.5mb 83f 82f
11:50am 3ft 6s 4s 13 16 mph 1014.2mb 82f 82f
10:50am 3ft 8s 5s 13 16 mph 1014.6mb 82f 82f
9:50am 2.5ft 8s 5s 16
mph
1014.6mb 82f 82f
8:50am 3ft 7s 5s 13 16 mph 1014.5mb 82f 82f
7:50am 3ft 7s 5s 11 13 mph 1014.2mb 82f 82f
6:50am 2.5ft 7s 5s 11 13 mph 1013.2mb 82f 81f
5:50am 3ft 7s 5s 11 13 mph 1012.5mb 82f 81f
4:50am 2.5ft 6s 5s 11 13 mph 1012mb 82f 81f
3:50am 2.5ft 6s 5s 11 13 mph 1011.7mb 82f 81f
2:50am 2.5ft 7s 5s 11
mph
1011.7mb 82f 81f
1:50am 2.5ft 6s 5s 11 13 mph 1012.3mb 82f 81f
12:50am 2ft 6s 5s 11 13 mph 1012.7mb 82f 81f
Mon 12/15 11:50pm 2.5ft 6s 5s 11
mph
1012.8mb 82f 81f
10:50pm 2.5ft 6s 5s 11 13 mph 1013mb 82f 81f
9:50pm 2.5ft 7s 5s 11 13 mph 1013.2mb 82f 81f
8:50pm 2.5ft 7s 5s 11 13 mph 1013mb 82f 81f
7:50pm 2.5ft 7s 5s 11 13 mph 1012.6mb 82f 81f
6:50pm 2.5ft 6s 5s 11
mph
1011.9mb 82f 81f
5:50pm 2.5ft 7s 5s 9 13 mph 1011.4mb 82f 81f
4:50pm 2.5ft 7s 5s 9 11 mph 1011.1mb 83f 81f
3:50pm 2.5ft 7s 5s 11 13 mph 1010.6mb 83f 81f
2:50pm 2.5ft 11s 5s 11 13 mph 1010.7mb 83f 81f
1:50pm 2.5ft 11s 5s 11 13 mph 1011.3mb 83f 81f
12:50pm 2ft 7s 5s 9 11 mph 1012mb 83f 81f
11:50am 2ft 7s 5s 11 13 mph 1012.5mb 82f 81f
10:50am 2.5ft 11s 5s 11 13 mph 1013.1mb 82f 81f
9:50am 2ft 11s 5s 11 13 mph 1013.5mb 82f 81f
8:50am 2ft 11s 6s 9 11 mph 1013.3mb 82f 81f
7:50am 2.5ft 11s 6s 11 13 mph 1012.8mb 82f 81f
6:50am 2.5ft 11s 6s 7 9 mph 1011.8mb 82f 80f
5:50am 2.5ft 11s 6s 7 9 mph 1011.2mb 82f 80f
4:50am 2.5ft 8s 6s 7 9 mph 1010.6mb 82f 80f
3:50am 2.5ft 11s 6s 7 9 mph 1010.3mb 82f 80f
2:50am 2.5ft 7s 6s 7
mph
1010.2mb 82f 80f
1:50am 2.5ft 11s 6s 7 9 mph 1010.5mb 82f 80f
12:50am 2.5ft 7s 6s 7
mph
1011.1mb 82f 80f
Sun 12/14 11:50pm 2.5ft 12s 6s 4 7 mph 1011.2mb 82f 80f
10:50pm 2.5ft 11s 5s 4
mph
1011.4mb 82f 81f
9:50pm 2ft 11s 5s 4 7 mph 1011.7mb 82f 81f
8:50pm 2.5ft 6s 5s 7 9 mph 1011.5mb 82f 81f
7:50pm 2.5ft 6s 5s 4 7 mph 1011.2mb 82f 81f
6:50pm 2.5ft 6s 5s 4 7 mph 1010.6mb 82f 81f
5:50pm 2.5ft 6s 5s 7
mph
1010mb 82f 81f
4:50pm 2.5ft 6s 5s 7 9 mph 1009.8mb 82f 81f
3:50pm 2.5ft 7s 5s 7 9 mph 1009.7mb 83f 81f
2:50pm 2.5ft 6s 5s 9
mph
1009.8mb 83f 81f
1:50pm 2.5ft 7s 5s 7 9 mph 1010.1mb 83f 81f
12:50pm 2.5ft 6s 5s 9 11 mph 1011mb 83f 81f